sensor_id;sensor_type;location;lat;lon;timestamp;temperature;humidity
39189;DHT22;24915;50.858;4.376;2023-07-20T00:01:46;17.20;99.90
39189;DHT22;24915;50.858;4.376;2023-07-20T00:04:13;17.20;99.90
39189;DHT22;24915;50.858;4.376;2023-07-20T00:06:40;17.10;99.90
39189;DHT22;24915;50.858;4.376;2023-07-20T00:09:08;17.10;99.90
39189;DHT22;24915;50.858;4.376;2023-07-20T00:11:36;17.10;99.90
39189;DHT22;24915;50.858;4.376;2023-07-20T00:14:06;17.10;99.90
39189;DHT22;24915;50.858;4.376;2023-07-20T00:16:32;17.10;99.90
39189;DHT22;24915;50.858;4.376;2023-07-20T00:18:57;17.10;99.90
39189;DHT22;24915;50.858;4.376;2023-07-20T00:21:23;17.10;99.90
39189;DHT22;24915;50.858;4.376;2023-07-20T00:23:49;17.10;99.90
39189;DHT22;24915;50.858;4.376;2023-07-20T00:26:14;17.10;99.90
39189;DHT22;24915;50.858;4.376;2023-07-20T00:28:40;17.20;99.90
39189;DHT22;24915;50.858;4.376;2023-07-20T00:31:06;17.10;99.90
39189;DHT22;24915;50.858;4.376;2023-07-20T00:33:31;17.20;99.90
39189;DHT22;24915;50.858;4.376;2023-07-20T00:35:57;17.20;99.90
39189;DHT22;24915;50.858;4.376;2023-07-20T00:38:23;17.10;99.90
39189;DHT22;24915;50.858;4.376;2023-07-20T00:40:48;17.10;99.90
39189;DHT22;24915;50.858;4.376;2023-07-20T00:43:15;17.10;99.90
39189;DHT22;24915;50.858;4.376;2023-07-20T00:45:40;17.00;99.90
39189;DHT22;24915;50.858;4.376;2023-07-20T00:48:07;17.00;99.90
39189;DHT22;24915;50.858;4.376;2023-07-20T00:50:33;17.00;99.90
39189;DHT22;24915;50.858;4.376;2023-07-20T00:53:00;17.10;99.90
39189;DHT22;24915;50.858;4.376;2023-07-20T00:55:26;17.10;99.90
39189;DHT22;24915;50.858;4.376;2023-07-20T00:57:53;17.10;99.90
39189;DHT22;24915;50.858;4.376;2023-07-20T01:00:19;17.10;99.90
39189;DHT22;24915;50.858;4.376;2023-07-20T01:02:45;17.10;99.90
39189;DHT22;24915;50.858;4.376;2023-07-20T01:05:12;17.10;99.90
39189;DHT22;24915;50.858;4.376;2023-07-20T01:08:04;17.10;99.90
39189;DHT22;24915;50.858;4.376;2023-07-20T01:10:39;17.10;99.90
39189;DHT22;24915;50.858;4.376;2023-07-20T01:13:06;17.10;99.90
39189;DHT22;24915;50.858;4.376;2023-07-20T01:15:35;17.10;99.90
39189;DHT22;24915;50.858;4.376;2023-07-20T01:18:01;17.10;99.90
39189;DHT22;24915;50.858;4.376;2023-07-20T01:20:28;17.10;99.90
39189;DHT22;24915;50.858;4.376;2023-07-20T01:23:22;17.10;99.90
39189;DHT22;24915;50.858;4.376;2023-07-20T01:26:08;17.00;99.90
39189;DHT22;24915;50.858;4.376;2023-07-20T01:28:48;17.00;99.90
39189;DHT22;24915;50.858;4.376;2023-07-20T01:31:25;17.10;99.90
39189;DHT22;24915;50.858;4.376;2023-07-20T01:33:55;17.10;99.90
39189;DHT22;24915;50.858;4.376;2023-07-20T01:36:23;17.10;99.90
39189;DHT22;24915;50.858;4.376;2023-07-20T01:38:51;17.00;99.90
39189;DHT22;24915;50.858;4.376;2023-07-20T01:41:17;17.10;99.90
39189;DHT22;24915;50.858;4.376;2023-07-20T01:43:43;17.20;99.90
39189;DHT22;24915;50.858;4.376;2023-07-20T01:46:09;17.20;99.90
39189;DHT22;24915;50.858;4.376;2023-07-20T01:48:35;17.20;99.90
39189;DHT22;24915;50.858;4.376;2023-07-20T01:51:01;17.10;99.90
39189;DHT22;24915;50.858;4.376;2023-07-20T01:53:26;17.10;99.90
39189;DHT22;24915;50.858;4.376;2023-07-20T01:55:53;17.10;99.90
39189;DHT22;24915;50.858;4.376;2023-07-20T01:58:19;17.10;99.90
39189;DHT22;24915;50.858;4.376;2023-07-20T02:00:45;17.10;99.90
39189;DHT22;24915;50.858;4.376;2023-07-20T02:03:11;17.00;99.90
39189;DHT22;24915;50.858;4.376;2023-07-20T02:05:37;17.00;99.90
39189;DHT22;24915;50.858;4.376;2023-07-20T02:08:03;17.00;99.90
39189;DHT22;24915;50.858;4.376;2023-07-20T02:10:29;17.00;99.90
39189;DHT22;24915;50.858;4.376;2023-07-20T02:12:55;17.00;99.90
39189;DHT22;24915;50.858;4.376;2023-07-20T02:15:21;17.00;99.90
39189;DHT22;24915;50.858;4.376;2023-07-20T02:17:47;16.90;99.90
39189;DHT22;24915;50.858;4.376;2023-07-20T02:20:13;17.00;99.90
39189;DHT22;24915;50.858;4.376;2023-07-20T02:22:39;17.00;99.90
39189;DHT22;24915;50.858;4.376;2023-07-20T02:25:06;16.90;99.90
39189;DHT22;24915;50.858;4.376;2023-07-20T02:27:33;17.00;99.90
39189;DHT22;24915;50.858;4.376;2023-07-20T02:29:59;17.00;99.90
39189;DHT22;24915;50.858;4.376;2023-07-20T02:32:24;17.00;99.90
39189;DHT22;24915;50.858;4.376;2023-07-20T02:34:50;17.00;99.90
39189;DHT22;24915;50.858;4.376;2023-07-20T02:37:16;17.10;99.90
39189;DHT22;24915;50.858;4.376;2023-07-20T02:39:42;17.00;99.90
39189;DHT22;24915;50.858;4.376;2023-07-20T02:42:07;16.90;99.90
39189;DHT22;24915;50.858;4.376;2023-07-20T02:44:33;16.90;99.90
39189;DHT22;24915;50.858;4.376;2023-07-20T02:46:59;16.90;99.90
39189;DHT22;24915;50.858;4.376;2023-07-20T02:49:24;16.90;99.90
39189;DHT22;24915;50.858;4.376;2023-07-20T02:51:50;16.90;99.90
39189;DHT22;24915;50.858;4.376;2023-07-20T02:54:16;16.90;99.90
39189;DHT22;24915;50.858;4.376;2023-07-20T02:56:41;17.00;99.90
39189;DHT22;24915;50.858;4.376;2023-07-20T02:59:07;17.00;99.90
39189;DHT22;24915;50.858;4.376;2023-07-20T03:01:33;17.00;99.90
39189;DHT22;24915;50.858;4.376;2023-07-20T03:03:58;17.00;99.90
39189;DHT22;24915;50.858;4.376;2023-07-20T03:06:24;17.20;99.90
39189;DHT22;24915;50.858;4.376;2023-07-20T03:08:50;17.10;99.90
39189;DHT22;24915;50.858;4.376;2023-07-20T03:11:19;17.20;99.90
39189;DHT22;24915;50.858;4.376;2023-07-20T03:13:45;17.20;99.90
39189;DHT22;24915;50.858;4.376;2023-07-20T03:16:11;17.20;99.90
39189;DHT22;24915;50.858;4.376;2023-07-20T03:18:38;17.30;99.90
39189;DHT22;24915;50.858;4.376;2023-07-20T03:21:09;17.30;99.90
39189;DHT22;24915;50.858;4.376;2023-07-20T03:23:37;17.30;99.90
39189;DHT22;24915;50.858;4.376;2023-07-20T03:26:02;17.30;99.90
39189;DHT22;24915;50.858;4.376;2023-07-20T03:28:28;17.30;99.90
39189;DHT22;24915;50.858;4.376;2023-07-20T03:30:58;17.30;99.90
39189;DHT22;24915;50.858;4.376;2023-07-20T03:33:26;17.30;99.90
39189;DHT22;24915;50.858;4.376;2023-07-20T03:35:51;17.30;99.90
39189;DHT22;24915;50.858;4.376;2023-07-20T03:38:17;17.20;99.90
39189;DHT22;24915;50.858;4.376;2023-07-20T03:41:01;17.20;99.90
39189;DHT22;24915;50.858;4.376;2023-07-20T03:43:28;17.20;99.90
39189;DHT22;24915;50.858;4.376;2023-07-20T03:45:54;17.20;99.90
39189;DHT22;24915;50.858;4.376;2023-07-20T03:48:21;17.20;99.90
39189;DHT22;24915;50.858;4.376;2023-07-20T03:50:49;17.20;99.90
39189;DHT22;24915;50.858;4.376;2023-07-20T03:53:16;17.20;99.90
39189;DHT22;24915;50.858;4.376;2023-07-20T03:55:48;17.20;99.90
39189;DHT22;24915;50.858;4.376;2023-07-20T03:58:15;17.20;99.90
39189;DHT22;24915;50.858;4.376;2023-07-20T04:00:48;17.20;99.90
39189;DHT22;24915;50.858;4.376;2023-07-20T04:03:16;17.20;99.90
39189;DHT22;24915;50.858;4.376;2023-07-20T04:05:42;17.20;99.90
39189;DHT22;24915;50.858;4.376;2023-07-20T04:08:08;17.10;99.90
39189;DHT22;24915;50.858;4.376;2023-07-20T04:10:34;17.20;99.90
39189;DHT22;24915;50.858;4.376;2023-07-20T04:13:00;17.10;99.90
39189;DHT22;24915;50.858;4.376;2023-07-20T04:15:26;17.10;99.90
39189;DHT22;24915;50.858;4.376;2023-07-20T04:17:52;17.10;99.90
39189;DHT22;24915;50.858;4.376;2023-07-20T04:20:17;17.10;99.90
39189;DHT22;24915;50.858;4.376;2023-07-20T04:22:43;17.20;99.90
39189;DHT22;24915;50.858;4.376;2023-07-20T04:25:09;17.20;99.90
39189;DHT22;24915;50.858;4.376;2023-07-20T04:27:35;17.30;99.90
39189;DHT22;24915;50.858;4.376;2023-07-20T04:30:01;17.30;99.90
39189;DHT22;24915;50.858;4.376;2023-07-20T04:32:27;17.30;99.90
39189;DHT22;24915;50.858;4.376;2023-07-20T04:34:53;17.30;99.90
39189;DHT22;24915;50.858;4.376;2023-07-20T04:37:19;17.40;99.90
39189;DHT22;24915;50.858;4.376;2023-07-20T04:39:45;17.40;99.90
39189;DHT22;24915;50.858;4.376;2023-07-20T04:42:11;17.50;99.90
39189;DHT22;24915;50.858;4.376;2023-07-20T04:44:36;17.50;99.90
39189;DHT22;24915;50.858;4.376;2023-07-20T04:47:02;17.50;99.90
39189;DHT22;24915;50.858;4.376;2023-07-20T04:49:28;17.60;99.90
39189;DHT22;24915;50.858;4.376;2023-07-20T04:51:54;17.60;99.90
39189;DHT22;24915;50.858;4.376;2023-07-20T04:54:20;17.60;99.90
39189;DHT22;24915;50.858;4.376;2023-07-20T04:56:45;17.70;99.90
39189;DHT22;24915;50.858;4.376;2023-07-20T04:59:11;17.70;99.90
39189;DHT22;24915;50.858;4.376;2023-07-20T05:01:37;17.70;99.90
39189;DHT22;24915;50.858;4.376;2023-07-20T05:04:02;17.70;99.90
39189;DHT22;24915;50.858;4.376;2023-07-20T05:06:28;17.80;99.90
39189;DHT22;24915;50.858;4.376;2023-07-20T05:08:54;17.80;99.90
39189;DHT22;24915;50.858;4.376;2023-07-20T05:11:19;17.80;99.90
39189;DHT22;24915;50.858;4.376;2023-07-20T05:13:45;17.80;99.90
39189;DHT22;24915;50.858;4.376;2023-07-20T05:16:11;17.80;99.90
39189;DHT22;24915;50.858;4.376;2023-07-20T05:18:37;17.80;99.90
39189;DHT22;24915;50.858;4.376;2023-07-20T05:21:02;17.80;99.90
39189;DHT22;24915;50.858;4.376;2023-07-20T05:23:28;17.90;99.90
39189;DHT22;24915;50.858;4.376;2023-07-20T05:25:58;17.90;99.90
39189;DHT22;24915;50.858;4.376;2023-07-20T05:28:24;17.90;99.90
39189;DHT22;24915;50.858;4.376;2023-07-20T05:30:53;17.90;99.90
39189;DHT22;24915;50.858;4.376;2023-07-20T05:33:22;18.00;99.90
39189;DHT22;24915;50.858;4.376;2023-07-20T05:35:48;18.00;99.90
39189;DHT22;24915;50.858;4.376;2023-07-20T05:38:13;18.10;99.90
39189;DHT22;24915;50.858;4.376;2023-07-20T05:40:43;18.10;99.90
39189;DHT22;24915;50.858;4.376;2023-07-20T05:43:10;18.10;99.90
39189;DHT22;24915;50.858;4.376;2023-07-20T05:45:35;18.10;99.90
39189;DHT22;24915;50.858;4.376;2023-07-20T05:48:01;18.10;99.90
39189;DHT22;24915;50.858;4.376;2023-07-20T05:50:27;18.10;99.90
39189;DHT22;24915;50.858;4.376;2023-07-20T05:52:53;18.10;99.90
39189;DHT22;24915;50.858;4.376;2023-07-20T05:55:19;18.20;99.90
39189;DHT22;24915;50.858;4.376;2023-07-20T05:57:45;18.20;99.90
39189;DHT22;24915;50.858;4.376;2023-07-20T06:00:11;18.20;99.90
39189;DHT22;24915;50.858;4.376;2023-07-20T06:02:41;18.20;99.90
39189;DHT22;24915;50.858;4.376;2023-07-20T06:05:07;18.20;99.90
39189;DHT22;24915;50.858;4.376;2023-07-20T06:07:38;18.30;99.90
39189;DHT22;24915;50.858;4.376;2023-07-20T06:10:05;18.30;99.90
39189;DHT22;24915;50.858;4.376;2023-07-20T06:12:31;18.40;99.90
39189;DHT22;24915;50.858;4.376;2023-07-20T06:17:26;18.40;99.90
39189;DHT22;24915;50.858;4.376;2023-07-20T06:19:51;18.40;99.90
39189;DHT22;24915;50.858;4.376;2023-07-20T06:22:17;18.50;99.90
39189;DHT22;24915;50.858;4.376;2023-07-20T06:24:43;18.50;99.90
39189;DHT22;24915;50.858;4.376;2023-07-20T06:27:08;18.60;99.90
39189;DHT22;24915;50.858;4.376;2023-07-20T06:29:34;18.60;99.90
39189;DHT22;24915;50.858;4.376;2023-07-20T06:32:00;18.70;99.90
39189;DHT22;24915;50.858;4.376;2023-07-20T06:34:25;18.70;99.90
39189;DHT22;24915;50.858;4.376;2023-07-20T06:36:51;18.70;99.90
39189;DHT22;24915;50.858;4.376;2023-07-20T06:39:16;18.70;99.90
39189;DHT22;24915;50.858;4.376;2023-07-20T06:41:42;18.80;99.90
39189;DHT22;24915;50.858;4.376;2023-07-20T06:44:08;18.80;99.90
39189;DHT22;24915;50.858;4.376;2023-07-20T06:46:33;18.90;99.90
39189;DHT22;24915;50.858;4.376;2023-07-20T06:48:59;18.90;99.90
39189;DHT22;24915;50.858;4.376;2023-07-20T06:51:24;19.00;99.90
39189;DHT22;24915;50.858;4.376;2023-07-20T06:53:50;19.10;99.90
39189;DHT22;24915;50.858;4.376;2023-07-20T06:56:16;19.20;99.90
39189;DHT22;24915;50.858;4.376;2023-07-20T06:58:41;19.20;99.90
39189;DHT22;24915;50.858;4.376;2023-07-20T07:01:08;19.20;99.90
39189;DHT22;24915;50.858;4.376;2023-07-20T07:03:33;19.30;99.90
39189;DHT22;24915;50.858;4.376;2023-07-20T07:06:00;19.30;99.90
39189;DHT22;24915;50.858;4.376;2023-07-20T07:08:25;19.40;99.90
39189;DHT22;24915;50.858;4.376;2023-07-20T07:10:52;19.50;99.90
39189;DHT22;24915;50.858;4.376;2023-07-20T07:13:19;19.70;99.90
39189;DHT22;24915;50.858;4.376;2023-07-20T07:15:45;19.90;99.90
39189;DHT22;24915;50.858;4.376;2023-07-20T07:18:11;20.00;99.90
39189;DHT22;24915;50.858;4.376;2023-07-20T07:20:37;20.00;99.90
39189;DHT22;24915;50.858;4.376;2023-07-20T07:23:03;20.10;99.90
39189;DHT22;24915;50.858;4.376;2023-07-20T07:25:28;20.20;99.90
39189;DHT22;24915;50.858;4.376;2023-07-20T07:27:55;20.20;99.90
39189;DHT22;24915;50.858;4.376;2023-07-20T07:30:21;20.30;99.90
39189;DHT22;24915;50.858;4.376;2023-07-20T07:32:47;20.40;99.90
39189;DHT22;24915;50.858;4.376;2023-07-20T07:35:13;20.40;99.90
39189;DHT22;24915;50.858;4.376;2023-07-20T07:37:38;20.50;99.90
39189;DHT22;24915;50.858;4.376;2023-07-20T07:40:05;20.50;99.90
39189;DHT22;24915;50.858;4.376;2023-07-20T07:42:32;20.40;99.90
39189;DHT22;24915;50.858;4.376;2023-07-20T07:44:57;20.30;99.90
39189;DHT22;24915;50.858;4.376;2023-07-20T07:47:23;20.30;99.90
39189;DHT22;24915;50.858;4.376;2023-07-20T07:49:48;20.40;99.90
39189;DHT22;24915;50.858;4.376;2023-07-20T07:52:15;20.40;99.90
39189;DHT22;24915;50.858;4.376;2023-07-20T07:54:41;20.50;99.90
39189;DHT22;24915;50.858;4.376;2023-07-20T07:57:06;20.70;99.90
39189;DHT22;24915;50.858;4.376;2023-07-20T07:59:32;20.80;99.90
39189;DHT22;24915;50.858;4.376;2023-07-20T08:02:03;20.90;99.90
39189;DHT22;24915;50.858;4.376;2023-07-20T08:04:30;21.20;99.90
39189;DHT22;24915;50.858;4.376;2023-07-20T08:06:55;21.30;99.90
39189;DHT22;24915;50.858;4.376;2023-07-20T08:09:21;21.40;99.90
39189;DHT22;24915;50.858;4.376;2023-07-20T08:11:47;21.50;99.90
39189;DHT22;24915;50.858;4.376;2023-07-20T08:14:13;21.60;99.90
39189;DHT22;24915;50.858;4.376;2023-07-20T08:16:39;21.80;99.90
39189;DHT22;24915;50.858;4.376;2023-07-20T08:19:05;22.00;99.90
39189;DHT22;24915;50.858;4.376;2023-07-20T08:21:30;22.40;99.90
39189;DHT22;24915;50.858;4.376;2023-07-20T08:23:56;22.70;99.90
39189;DHT22;24915;50.858;4.376;2023-07-20T08:26:23;23.00;99.90
39189;DHT22;24915;50.858;4.376;2023-07-20T08:28:48;23.30;99.90
39189;DHT22;24915;50.858;4.376;2023-07-20T08:31:14;23.30;99.90
39189;DHT22;24915;50.858;4.376;2023-07-20T08:33:40;23.30;99.90
39189;DHT22;24915;50.858;4.376;2023-07-20T08:36:06;23.30;99.90
39189;DHT22;24915;50.858;4.376;2023-07-20T08:38:31;23.50;99.90
39189;DHT22;24915;50.858;4.376;2023-07-20T08:40:57;23.70;99.90
39189;DHT22;24915;50.858;4.376;2023-07-20T08:43:25;23.70;99.90
39189;DHT22;24915;50.858;4.376;2023-07-20T08:45:52;23.70;99.90
39189;DHT22;24915;50.858;4.376;2023-07-20T08:48:20;23.60;99.90
39189;DHT22;24915;50.858;4.376;2023-07-20T08:50:49;23.50;99.90
39189;DHT22;24915;50.858;4.376;2023-07-20T08:53:16;23.40;99.90
39189;DHT22;24915;50.858;4.376;2023-07-20T08:55:44;23.30;99.90
39189;DHT22;24915;50.858;4.376;2023-07-20T08:58:12;23.40;99.90
39189;DHT22;24915;50.858;4.376;2023-07-20T09:00:38;23.50;99.90
39189;DHT22;24915;50.858;4.376;2023-07-20T09:03:04;23.50;99.80
39189;DHT22;24915;50.858;4.376;2023-07-20T09:05:30;23.60;99.50
39189;DHT22;24915;50.858;4.376;2023-07-20T09:07:56;23.70;99.50
39189;DHT22;24915;50.858;4.376;2023-07-20T09:10:23;23.80;99.20
39189;DHT22;24915;50.858;4.376;2023-07-20T09:12:49;24.10;99.40
39189;DHT22;24915;50.858;4.376;2023-07-20T09:15:15;24.40;98.70
39189;DHT22;24915;50.858;4.376;2023-07-20T09:17:48;24.60;98.50
39189;DHT22;24915;50.858;4.376;2023-07-20T09:20:16;24.70;97.70
39189;DHT22;24915;50.858;4.376;2023-07-20T09:22:42;24.50;97.80
39189;DHT22;24915;50.858;4.376;2023-07-20T09:25:18;24.40;97.60
39189;DHT22;24915;50.858;4.376;2023-07-20T09:27:48;24.00;97.10
39189;DHT22;24915;50.858;4.376;2023-07-20T09:30:15;23.80;98.70
39189;DHT22;24915;50.858;4.376;2023-07-20T09:32:47;23.80;98.80
39189;DHT22;24915;50.858;4.376;2023-07-20T09:35:14;24.20;99.00
39189;DHT22;24915;50.858;4.376;2023-07-20T09:37:41;24.60;98.20
39189;DHT22;24915;50.858;4.376;2023-07-20T09:40:11;24.90;97.60
39189;DHT22;24915;50.858;4.376;2023-07-20T09:42:36;25.00;97.30
39189;DHT22;24915;50.858;4.376;2023-07-20T09:45:06;25.00;96.00
39189;DHT22;24915;50.858;4.376;2023-07-20T09:47:36;24.80;96.40
39189;DHT22;24915;50.858;4.376;2023-07-20T09:50:02;24.60;97.00
39189;DHT22;24915;50.858;4.376;2023-07-20T09:52:29;24.60;97.20
39189;DHT22;24915;50.858;4.376;2023-07-20T09:54:55;24.70;97.60
39189;DHT22;24915;50.858;4.376;2023-07-20T09:57:21;24.80;97.20
39189;DHT22;24915;50.858;4.376;2023-07-20T09:59:47;25.00;97.20
39189;DHT22;24915;50.858;4.376;2023-07-20T10:02:23;24.90;96.40
39189;DHT22;24915;50.858;4.376;2023-07-20T10:04:53;24.90;96.30
39189;DHT22;24915;50.858;4.376;2023-07-20T10:07:19;24.90;96.60
39189;DHT22;24915;50.858;4.376;2023-07-20T10:09:48;24.80;96.50
39189;DHT22;24915;50.858;4.376;2023-07-20T10:12:17;24.90;96.80
39189;DHT22;24915;50.858;4.376;2023-07-20T10:14:51;25.00;95.80
39189;DHT22;24915;50.858;4.376;2023-07-20T10:17:18;24.90;95.50
39189;DHT22;24915;50.858;4.376;2023-07-20T10:19:50;25.00;96.10
39189;DHT22;24915;50.858;4.376;2023-07-20T10:22:24;25.10;95.00
39189;DHT22;24915;50.858;4.376;2023-07-20T10:24:51;25.00;94.80
39189;DHT22;24915;50.858;4.376;2023-07-20T10:27:20;25.10;95.20
39189;DHT22;24915;50.858;4.376;2023-07-20T10:29:46;25.10;95.00
39189;DHT22;24915;50.858;4.376;2023-07-20T10:32:13;25.10;95.30
39189;DHT22;24915;50.858;4.376;2023-07-20T10:34:39;25.00;95.10
39189;DHT22;24915;50.858;4.376;2023-07-20T10:37:05;24.90;95.40
39189;DHT22;24915;50.858;4.376;2023-07-20T10:39:32;24.80;95.50
39189;DHT22;24915;50.858;4.376;2023-07-20T10:42:07;24.70;95.50
39189;DHT22;24915;50.858;4.376;2023-07-20T10:44:33;24.50;95.40
39189;DHT22;24915;50.858;4.376;2023-07-20T10:47:06;24.40;95.50
39189;DHT22;24915;50.858;4.376;2023-07-20T10:49:34;24.30;96.20
39189;DHT22;24915;50.858;4.376;2023-07-20T10:52:04;24.30;96.00
39189;DHT22;24915;50.858;4.376;2023-07-20T10:57:23;24.20;96.00
39189;DHT22;24915;50.858;4.376;2023-07-20T10:59:49;24.10;95.90
39189;DHT22;24915;50.858;4.376;2023-07-20T11:02:18;24.10;96.20
39189;DHT22;24915;50.858;4.376;2023-07-20T11:04:47;24.20;96.60
39189;DHT22;24915;50.858;4.376;2023-07-20T11:07:36;24.30;96.20
39189;DHT22;24915;50.858;4.376;2023-07-20T11:10:13;24.50;96.50
39189;DHT22;24915;50.858;4.376;2023-07-20T11:13:22;24.50;95.70
39189;DHT22;24915;50.858;4.376;2023-07-20T11:16:02;24.50;96.00
39189;DHT22;24915;50.858;4.376;2023-07-20T11:18:29;24.70;95.30
39189;DHT22;24915;50.858;4.376;2023-07-20T11:20:57;24.70;95.30
39189;DHT22;24915;50.858;4.376;2023-07-20T11:23:23;24.60;95.50
39189;DHT22;24915;50.858;4.376;2023-07-20T11:25:49;24.50;95.60
39189;DHT22;24915;50.858;4.376;2023-07-20T11:28:15;24.60;95.20
39189;DHT22;24915;50.858;4.376;2023-07-20T11:30:41;24.60;95.70
39189;DHT22;24915;50.858;4.376;2023-07-20T11:33:10;24.70;95.20
39189;DHT22;24915;50.858;4.376;2023-07-20T11:35:42;24.70;94.40
39189;DHT22;24915;50.858;4.376;2023-07-20T11:38:09;24.50;93.80
39189;DHT22;24915;50.858;4.376;2023-07-20T11:40:34;24.60;94.20
39189;DHT22;24915;50.858;4.376;2023-07-20T11:43:00;24.90;93.60
39189;DHT22;24915;50.858;4.376;2023-07-20T11:45:26;24.90;92.40
39189;DHT22;24915;50.858;4.376;2023-07-20T11:47:53;24.80;92.90
39189;DHT22;24915;50.858;4.376;2023-07-20T11:50:18;25.10;93.00
39189;DHT22;24915;50.858;4.376;2023-07-20T11:52:44;25.30;92.90
39189;DHT22;24915;50.858;4.376;2023-07-20T11:55:11;25.50;92.60
39189;DHT22;24915;50.858;4.376;2023-07-20T11:57:37;25.40;92.60
39189;DHT22;24915;50.858;4.376;2023-07-20T12:00:04;25.40;92.90
39189;DHT22;24915;50.858;4.376;2023-07-20T12:02:37;25.40;92.80
39189;DHT22;24915;50.858;4.376;2023-07-20T12:05:05;25.40;92.70
39189;DHT22;24915;50.858;4.376;2023-07-20T12:07:36;25.20;91.80
39189;DHT22;24915;50.858;4.376;2023-07-20T12:10:09;24.90;91.50
39189;DHT22;24915;50.858;4.376;2023-07-20T12:12:44;24.60;91.80
39189;DHT22;24915;50.858;4.376;2023-07-20T12:17:49;24.00;93.20
39189;DHT22;24915;50.858;4.376;2023-07-20T12:22:58;24.00;92.70
39189;DHT22;24915;50.858;4.376;2023-07-20T12:25:32;24.10;92.90
39189;DHT22;24915;50.858;4.376;2023-07-20T12:28:00;24.20;92.90
39189;DHT22;24915;50.858;4.376;2023-07-20T12:30:28;24.30;93.20
39189;DHT22;24915;50.858;4.376;2023-07-20T12:32:54;24.50;92.50
39189;DHT22;24915;50.858;4.376;2023-07-20T12:35:19;24.60;93.10
39189;DHT22;24915;50.858;4.376;2023-07-20T12:37:45;24.70;92.70
39189;DHT22;24915;50.858;4.376;2023-07-20T12:40:14;24.80;93.30
39189;DHT22;24915;50.858;4.376;2023-07-20T12:42:40;25.30;93.30
39189;DHT22;24915;50.858;4.376;2023-07-20T12:45:06;25.80;93.10
39189;DHT22;24915;50.858;4.376;2023-07-20T12:47:32;26.00;92.20
39189;DHT22;24915;50.858;4.376;2023-07-20T12:49:57;26.10;91.70
39189;DHT22;24915;50.858;4.376;2023-07-20T12:52:23;26.00;91.40
39189;DHT22;24915;50.858;4.376;2023-07-20T12:54:48;25.80;91.00
39189;DHT22;24915;50.858;4.376;2023-07-20T12:57:14;25.60;91.60
39189;DHT22;24915;50.858;4.376;2023-07-20T12:59:40;25.40;91.80
39189;DHT22;24915;50.858;4.376;2023-07-20T13:02:05;25.30;92.20
39189;DHT22;24915;50.858;4.376;2023-07-20T13:04:31;25.30;92.60
39189;DHT22;24915;50.858;4.376;2023-07-20T13:06:57;25.20;92.20
39189;DHT22;24915;50.858;4.376;2023-07-20T13:09:24;25.00;92.50
39189;DHT22;24915;50.858;4.376;2023-07-20T13:11:50;24.90;92.80
39189;DHT22;24915;50.858;4.376;2023-07-20T13:14:16;24.80;93.10
39189;DHT22;24915;50.858;4.376;2023-07-20T13:16:42;24.60;93.00
39189;DHT22;24915;50.858;4.376;2023-07-20T13:19:08;24.50;93.10
39189;DHT22;24915;50.858;4.376;2023-07-20T13:21:33;24.40;93.40
39189;DHT22;24915;50.858;4.376;2023-07-20T13:23:59;24.30;93.30
39189;DHT22;24915;50.858;4.376;2023-07-20T13:26:25;24.20;93.20
39189;DHT22;24915;50.858;4.376;2023-07-20T13:28:50;24.10;93.50
39189;DHT22;24915;50.858;4.376;2023-07-20T13:31:16;23.90;94.00
39189;DHT22;24915;50.858;4.376;2023-07-20T13:33:42;23.80;94.40
39189;DHT22;24915;50.858;4.376;2023-07-20T13:36:08;23.70;94.50
39189;DHT22;24915;50.858;4.376;2023-07-20T13:38:34;23.60;94.90
39189;DHT22;24915;50.858;4.376;2023-07-20T13:40:59;23.60;94.50
39189;DHT22;24915;50.858;4.376;2023-07-20T13:43:25;23.50;94.70
39189;DHT22;24915;50.858;4.376;2023-07-20T13:45:50;23.50;94.60
39189;DHT22;24915;50.858;4.376;2023-07-20T13:48:16;23.50;94.80
39189;DHT22;24915;50.858;4.376;2023-07-20T13:50:45;23.50;94.90
39189;DHT22;24915;50.858;4.376;2023-07-20T13:53:11;23.60;95.20
39189;DHT22;24915;50.858;4.376;2023-07-20T13:55:37;23.60;95.50
39189;DHT22;24915;50.858;4.376;2023-07-20T13:58:03;23.70;95.70
39189;DHT22;24915;50.858;4.376;2023-07-20T14:00:30;23.70;95.60
39189;DHT22;24915;50.858;4.376;2023-07-20T14:02:58;23.80;95.50
39189;DHT22;24915;50.858;4.376;2023-07-20T14:05:24;23.80;95.80
39189;DHT22;24915;50.858;4.376;2023-07-20T14:07:51;23.80;95.80
39189;DHT22;24915;50.858;4.376;2023-07-20T14:10:16;23.90;95.50
39189;DHT22;24915;50.858;4.376;2023-07-20T14:12:43;24.00;95.50
39189;DHT22;24915;50.858;4.376;2023-07-20T14:15:10;24.20;95.40
39189;DHT22;24915;50.858;4.376;2023-07-20T14:17:36;24.50;95.30
39189;DHT22;24915;50.858;4.376;2023-07-20T14:20:02;24.70;94.90
39189;DHT22;24915;50.858;4.376;2023-07-20T14:22:31;25.00;94.60
39189;DHT22;24915;50.858;4.376;2023-07-20T14:24:56;25.40;95.10
39189;DHT22;24915;50.858;4.376;2023-07-20T14:27:22;25.70;94.30
39189;DHT22;24915;50.858;4.376;2023-07-20T14:29:47;26.20;94.50
39189;DHT22;24915;50.858;4.376;2023-07-20T14:32:13;26.60;94.00
39189;DHT22;24915;50.858;4.376;2023-07-20T14:34:39;26.80;93.60
39189;DHT22;24915;50.858;4.376;2023-07-20T14:37:06;27.10;93.50
39189;DHT22;24915;50.858;4.376;2023-07-20T14:39:32;27.40;93.30
39189;DHT22;24915;50.858;4.376;2023-07-20T14:41:58;27.60;92.30
39189;DHT22;24915;50.858;4.376;2023-07-20T14:44:24;27.80;92.00
39189;DHT22;24915;50.858;4.376;2023-07-20T14:46:50;28.10;92.20
39189;DHT22;24915;50.858;4.376;2023-07-20T14:49:16;28.20;91.00
39189;DHT22;24915;50.858;4.376;2023-07-20T14:51:43;28.00;90.30
39189;DHT22;24915;50.858;4.376;2023-07-20T14:54:12;27.60;91.10
39189;DHT22;24915;50.858;4.376;2023-07-20T14:56:38;27.30;90.40
39189;DHT22;24915;50.858;4.376;2023-07-20T14:59:05;27.00;90.90
39189;DHT22;24915;50.858;4.376;2023-07-20T15:01:31;26.60;91.30
39189;DHT22;24915;50.858;4.376;2023-07-20T15:03:57;26.40;91.30
39189;DHT22;24915;50.858;4.376;2023-07-20T15:06:23;26.20;92.10
39189;DHT22;24915;50.858;4.376;2023-07-20T15:08:49;26.00;91.50
39189;DHT22;24915;50.858;4.376;2023-07-20T15:11:14;25.80;91.80
39189;DHT22;24915;50.858;4.376;2023-07-20T15:13:40;25.60;91.80
39189;DHT22;24915;50.858;4.376;2023-07-20T15:16:08;25.40;92.10
39189;DHT22;24915;50.858;4.376;2023-07-20T15:18:35;25.10;92.50
39189;DHT22;24915;50.858;4.376;2023-07-20T15:21:01;25.00;92.50
39189;DHT22;24915;50.858;4.376;2023-07-20T15:23:26;24.90;92.80
39189;DHT22;24915;50.858;4.376;2023-07-20T15:25:52;24.70;92.70
39189;DHT22;24915;50.858;4.376;2023-07-20T15:28:18;24.50;93.00
39189;DHT22;24915;50.858;4.376;2023-07-20T15:30:43;24.40;93.30
39189;DHT22;24915;50.858;4.376;2023-07-20T15:33:09;24.30;93.60
39189;DHT22;24915;50.858;4.376;2023-07-20T15:35:35;24.10;93.60
39189;DHT22;24915;50.858;4.376;2023-07-20T15:38:01;24.00;93.90
39189;DHT22;24915;50.858;4.376;2023-07-20T15:40:27;23.90;93.60